地図

経路データ

SID SEASON NUMBER BASIN SUBBASIN NAME ISO_TIME NATURE LAT LON WMO_WIND WMO_PRES WMO_AGENCY TRACK_TYPE DIST2LAND LANDFALL IFLAG USA_AGENCY USA_ATCF_ID USA_LAT USA_LON USA_RECORD USA_STATUS USA_WIND USA_PRES USA_SSHS USA_R34_NE USA_R34_SE USA_R34_SW USA_R34_NW USA_R50_NE USA_R50_SE USA_R50_SW USA_R50_NW USA_R64_NE USA_R64_SE USA_R64_SW USA_R64_NW USA_POCI USA_ROCI USA_RMW USA_EYE TOKYO_LAT TOKYO_LON TOKYO_GRADE TOKYO_WIND TOKYO_PRES TOKYO_R50_DIR TOKYO_R50_LONG TOKYO_R50_SHORT TOKYO_R30_DIR TOKYO_R30_LONG TOKYO_R30_SHORT TOKYO_LAND CMA_LAT CMA_LON CMA_CAT CMA_WIND CMA_PRES HKO_LAT HKO_LON HKO_CAT HKO_WIND HKO_PRES NEWDELHI_LAT NEWDELHI_LON NEWDELHI_GRADE NEWDELHI_WIND NEWDELHI_PRES NEWDELHI_CI NEWDELHI_DP NEWDELHI_POCI REUNION_LAT REUNION_LON REUNION_TYPE REUNION_WIND REUNION_PRES REUNION_TNUM REUNION_CI REUNION_RMW REUNION_R34_NE REUNION_R34_SE REUNION_R34_SW REUNION_R34_NW REUNION_R50_NE REUNION_R50_SE REUNION_R50_SW REUNION_R50_NW REUNION_R64_NE REUNION_R64_SE REUNION_R64_SW REUNION_R64_NW BOM_LAT BOM_LON BOM_TYPE BOM_WIND BOM_PRES BOM_TNUM BOM_CI BOM_RMW BOM_R34_NE BOM_R34_SE BOM_R34_SW BOM_R34_NW BOM_R50_NE BOM_R50_SE BOM_R50_SW BOM_R50_NW BOM_R64_NE BOM_R64_SE BOM_R64_SW BOM_R64_NW BOM_ROCI BOM_POCI BOM_EYE BOM_POS_METHOD BOM_PRES_METHOD NADI_LAT NADI_LON NADI_CAT NADI_WIND NADI_PRES WELLINGTON_LAT WELLINGTON_LON WELLINGTON_WIND WELLINGTON_PRES DS824_LAT DS824_LON DS824_STAGE DS824_WIND DS824_PRES TD9636_LAT TD9636_LON TD9636_STAGE TD9636_WIND TD9636_PRES TD9635_LAT TD9635_LON TD9635_WIND TD9635_PRES TD9635_ROCI NEUMANN_LAT NEUMANN_LON NEUMANN_CLASS NEUMANN_WIND NEUMANN_PRES MLC_LAT MLC_LON MLC_CLASS MLC_WIND MLC_PRES USA_GUST BOM_GUST BOM_GUST_PER REUNION_GUST REUNION_GUST_PER USA_SEAHGT USA_SEARAD_NE USA_SEARAD_SE USA_SEARAD_SW USA_SEARAD_NW STORM_SPEED STORM_DIR
1889278N20278 1889 29 NA CS NOT_NAMED 1889-10-05 06:00:00 TS 20.0000 -82.5000 30 hurdat_atl main 159 93 O_____________ hurdat_atl AL091889 20.0000 -82.5000 TD 30 -1 15 19
1889278N20278 1889 29 NA CS NOT_NAMED 1889-10-05 09:00:00 TS 20.7005 -82.2508 main 93 52 P_____________ AL091889 20.7005 -82.2508 TD 30 -1 16 17
1889278N20278 1889 29 NA CS NOT_NAMED 1889-10-05 12:00:00 TS 21.5000 -82.0000 30 hurdat_atl main 52 0 O_____________ hurdat_atl AL091889 21.5000 -82.0000 TD 30 -1 18 15
1889278N20278 1889 29 NA CS NOT_NAMED 1889-10-05 15:00:00 TS 22.4487 -81.7484 main 0 0 P_____________ AL091889 22.4487 -81.7484 TD 32 -1 20 14
1889278N20278 1889 29 NA NA NOT_NAMED 1889-10-05 18:00:00 TS 23.4000 -81.5000 35 hurdat_atl main 35 35 O_____________ hurdat_atl AL091889 23.4000 -81.5000 TS 35 0 18 14
1889278N20278 1889 29 NA NA NOT_NAMED 1889-10-05 21:00:00 TS 24.1641 -81.2731 main 102 44 P_____________ AL091889 24.1641 -81.2731 TS 35 0 16 16
1889278N20278 1889 29 NA NA NOT_NAMED 1889-10-05 23:00:00 TS 24.7000 -81.1000 35 hurdat_atl main 44 15 O_____________ hurdat_atl AL091889 24.7000 -81.1000 L TS 35 0 18 16
1889278N20278 1889 29 NA GM NOT_NAMED 1889-10-06 00:00:00 TS 25.0000 -81.0000 40 hurdat_atl main 15 0 O_____________ hurdat_atl AL091889 25.0000 -81.0000 TS 40 0 16 20
1889278N20278 1889 29 NA NA NOT_NAMED 1889-10-06 01:00:00 TS 25.2000 -80.9000 40 hurdat_atl main 0 0 O_____________ hurdat_atl AL091889 25.2000 -80.9000 L TS 40 0 17 20
1889278N20278 1889 29 NA NA NOT_NAMED 1889-10-06 03:00:00 TS 25.8097 -80.6682 main 0 0 P_____________ AL091889 25.8097 -80.6682 TS 40 0 24 18
1889278N20278 1889 29 NA NA NOT_NAMED 1889-10-06 06:00:00 TS 27.1000 -80.2000 40 hurdat_atl main 0 0 O_____________ hurdat_atl AL091889 27.1000 -80.2000 TS 40 0 29 19
1889278N20278 1889 29 NA NA NOT_NAMED 1889-10-06 09:00:00 TS 28.4908 -79.6090 main 87 87 P_____________ AL091889 28.4908 -79.6090 TS 42 0 32 23
1889278N20278 1889 29 NA NA NOT_NAMED 1889-10-06 12:00:00 TS 30.0000 -78.8000 45 hurdat_atl main 226 226 O_____________ hurdat_atl AL091889 30.0000 -78.8000 TS 45 0 34 28
1889278N20278 1889 29 NA NA NOT_NAMED 1889-10-06 15:00:00 TS 31.4829 -77.8017 main 224 171 P_____________ AL091889 31.4829 -77.8017 TS 47 0 36 33
1889278N20278 1889 29 NA NA NOT_NAMED 1889-10-06 18:00:00 TS 33.0000 -76.5000 50 hurdat_atl main 171 120 O_____________ hurdat_atl AL091889 33.0000 -76.5000 TS 50 0 40 39
1889278N20278 1889 29 NA NA NOT_NAMED 1889-10-06 21:00:00 TS 34.6132 -74.7860 main 138 133 P_____________ AL091889 34.6132 -74.7860 TS 50 0 42 43
1889278N20278 1889 29 NA NA NOT_NAMED 1889-10-07 00:00:00 TS 36.1000 -73.0000 50 hurdat_atl main 226 226 O_____________ hurdat_atl AL091889 36.1000 -73.0000 TS 50 0 37 44
1889278N20278 1889 29 NA NA NOT_NAMED 1889-10-07 03:00:00 TS 37.2792 -71.5520 main 326 326 P_____________ AL091889 37.2792 -71.5520 TS 50 0 31 44
1889278N20278 1889 29 NA NA NOT_NAMED 1889-10-07 06:00:00 TS 38.3000 -70.3000 50 hurdat_atl main 340 285 O_____________ hurdat_atl AL091889 38.3000 -70.3000 TS 50 0 28 44
1889278N20278 1889 29 NA NA NOT_NAMED 1889-10-07 09:00:00 TS 39.2983 -69.0998 main 277 230 P_____________ AL091889 39.2983 -69.0998 TS 50 0 27 42
1889278N20278 1889 29 NA NA NOT_NAMED 1889-10-07 12:00:00 TS 40.3000 -68.0000 50 hurdat_atl main 228 227 O_____________ hurdat_atl AL091889 40.3000 -68.0000 TS 50 0 27 38
1889278N20278 1889 29 NA NA NOT_NAMED 1889-10-07 15:00:00 TS 41.3990 -66.9180 main 253 124 P_____________ AL091889 41.3990 -66.9180 TS 50 0 27 36
1889278N20278 1889 29 NA NA NOT_NAMED 1889-10-07 18:00:00 TS 42.5000 -65.9000 50 hurdat_atl main 112 19 O_____________ hurdat_atl AL091889 42.5000 -65.9000 TS 50 0 26 35
1889278N20278 1889 29 NA NA NOT_NAMED 1889-10-07 21:00:00 TS 43.5216 -64.9166 main 23 0 P_____________ AL091889 43.5216 -64.9166 TS 50 0 24 35
1889278N20278 1889 29 NA NA NOT_NAMED 1889-10-08 00:00:00 ET 44.5000 -64.0000 50 hurdat_atl main 0 0 O_____________ hurdat_atl AL091889 44.5000 -64.0000 EX 50 -4 23 33
1889278N20278 1889 29 NA NA NOT_NAMED 1889-10-08 03:00:00 ET 45.4795 -63.1035 main 0 0 P_____________ AL091889 45.4795 -63.1035 EX 47 -4 22 32
1889278N20278 1889 29 NA NA NOT_NAMED 1889-10-08 06:00:00 ET 46.4000 -62.3000 45 hurdat_atl main 0 0 O_____________ hurdat_atl AL091889 46.4000 -62.3000 EX 45 -4 20 32
1889278N20278 1889 29 NA NA NOT_NAMED 1889-10-08 09:00:00 ET 47.2224 -61.5442 main 68 68 P_____________ AL091889 47.2224 -61.5442 EX 42 -4 18 29
1889278N20278 1889 29 NA NA NOT_NAMED 1889-10-08 12:00:00 ET 48.0000 -61.0000 40 hurdat_atl main 119 73 O_____________ hurdat_atl AL091889 48.0000 -61.0000 EX 40 -4 17 18
1889278N20278 1889 29 NA NA NOT_NAMED 1889-10-08 15:00:00 ET 48.8142 -60.7855 main 73 65 P_____________ AL091889 48.8142 -60.7855 EX 40 -4 16 7
1889278N20278 1889 29 NA NA NOT_NAMED 1889-10-08 18:00:00 ET 49.6000 -60.7000 40 hurdat_atl main 66 0 O_____________ hurdat_atl AL091889 49.6000 -60.7000 EX 40 -4 15 8
1889278N20278 1889 29 NA NA NOT_NAMED 1889-10-08 21:00:00 ET 50.3300 -60.4722 main 0 0 P_____________ AL091889 50.3300 -60.4722 EX 40 -4 14 13
1889278N20278 1889 29 NA NA NOT_NAMED 1889-10-09 00:00:00 ET 51.0000 -60.2000 40 hurdat_atl main 0 0 O_____________ hurdat_atl AL091889 51.0000 -60.2000 EX 40 -4 13 15
1889278N20278 1889 29 NA NA NOT_NAMED 1889-10-09 03:00:00 ET 51.6225 -59.9069 main 0 0 P_____________ AL091889 51.6225 -59.9069 EX 40 -4 13 17
1889278N20278 1889 29 NA NA NOT_NAMED 1889-10-09 06:00:00 ET 52.2000 -59.6000 40 hurdat_atl main 0 0 O_____________ hurdat_atl AL091889 52.2000 -59.6000 EX 40 -4 12 19
1889278N20278 1889 29 NA NA NOT_NAMED 1889-10-09 09:00:00 ET 52.7576 -59.2702 main 0 0 P_____________ AL091889 52.7576 -59.2702 EX 40 -4 12 18
1889278N20278 1889 29 NA NA NOT_NAMED 1889-10-09 12:00:00 ET 53.3000 -59.0000 40 hurdat_atl main 0 0 O_____________ hurdat_atl AL091889 53.3000 -59.0000 EX 40 -4 11 12
1889278N20278 1889 29 NA NA NOT_NAMED 1889-10-09 15:00:00 ET 53.8498 -58.8830 main 0 0 P_____________ AL091889 53.8498 -58.8830 EX 40 -4 11 6
1889278N20278 1889 29 NA NA NOT_NAMED 1889-10-09 18:00:00 ET 54.4000 -58.8000 40 hurdat_atl main 0 0 O_____________ hurdat_atl AL091889 54.4000 -58.8000 EX 40 -4 11 8
1889278N20278 1889 29 NA NA NOT_NAMED 1889-10-09 21:00:00 ET 54.9575 -58.6152 main 21 18 P_____________ AL091889 54.9575 -58.6152 EX 40 -4 11 12
1889278N20278 1889 29 NA NA NOT_NAMED 1889-10-10 00:00:00 ET 55.5000 -58.4000 40 hurdat_atl main 54 54 O_____________ hurdat_atl AL091889 55.5000 -58.4000 EX 40 -4 11 12
1889278N20278 1889 29 NA NA NOT_NAMED 1889-10-10 03:00:00 ET 56.0149 -58.2067 main 108 108 P_____________ AL091889 56.0149 -58.2067 EX 40 -4 10 13
1889278N20278 1889 29 NA NA NOT_NAMED 1889-10-10 06:00:00 ET 56.5000 -58.0000 40 hurdat_atl main 164 164 O_____________ hurdat_atl AL091889 56.5000 -58.0000 EX 40 -4 10 15
1889278N20278 1889 29 NA NA NOT_NAMED 1889-10-10 09:00:00 ET 56.9425 -57.7567 main 207 207 P_____________ AL091889 56.9425 -57.7567 EX 40 -4 9 17
1889278N20278 1889 29 NA NA NOT_NAMED 1889-10-10 12:00:00 ET 57.4000 -57.5000 40 hurdat_atl main 231 231 O_____________ hurdat_atl AL091889 57.4000 -57.5000 EX 40 -4 10 15
1889278N20278 1889 29 NA NA NOT_NAMED 1889-10-10 15:00:00 ET 57.8672 -57.2828 main 257 257 P_____________ AL091889 57.8672 -57.2828 EX 40 -4 11 14
1889278N20278 1889 29 NA NA NOT_NAMED 1889-10-10 18:00:00 ET 58.5000 -57.0000 40 hurdat_atl main 295 295 O_____________ hurdat_atl AL091889 58.5000 -57.0000 EX 40 -4 16 15
1889278N20278 1889 29 NA NA NOT_NAMED 1889-10-10 21:00:00 ET 59.3955 -56.5179 main 357 357 P_____________ AL091889 59.3955 -56.5179 EX 37 -4 21 14
1889278N20278 1889 29 NA NA NOT_NAMED 1889-10-11 00:00:00 ET 60.5000 -56.0000 35 hurdat_atl main 372 281 O_____________ hurdat_atl AL091889 60.5000 -56.0000 EX 35 -4 24 11
1889278N20278 1889 29 NA NA NOT_NAMED 1889-10-11 03:00:00 ET 61.7222 -55.6089 main 281 203 P_____________ AL091889 61.7222 -55.6089 EX 35 -4 25 8
1889278N20278 1889 29 NA NA NOT_NAMED 1889-10-11 06:00:00 ET 63.0000 -55.3000 35 hurdat_atl main 198 O_____________ hurdat_atl AL091889 63.0000 -55.3000 EX 35 -4 26 6

IBTrACS Databaseについて

本データベースは、米国NOAAが公開する1842年以降の世界の熱帯低気圧のベストトラックデータアーカイブInternational Best Track Archive for Climate Stewardship (IBTrACS)を、ウェブで閲覧しやすい形式に変換したものです。

最終更新日:2021-12-03